createdAt,value
2018-11-22T00:01:52.040Z,92.47
2018-11-22T00:04:20.522Z,92.19
2018-11-22T00:06:48.949Z,92.09
2018-11-22T00:09:18.380Z,92.02
2018-11-22T00:11:47.016Z,92.24
2018-11-22T00:14:15.661Z,92.31
2018-11-22T00:16:44.112Z,92.45
2018-11-22T00:19:12.504Z,92.37
2018-11-22T00:21:40.938Z,92.29
2018-11-22T00:24:09.607Z,92.54
2018-11-22T00:26:38.048Z,92.54
2018-11-22T00:29:06.504Z,92.16
2018-11-22T00:31:35.041Z,92.15
2018-11-22T00:34:03.505Z,92.00
2018-11-22T00:36:32.001Z,92.00
2018-11-22T00:39:00.563Z,92.12
2018-11-22T00:41:28.912Z,92.12
2018-11-22T00:43:57.340Z,92.22
2018-11-22T00:46:25.777Z,92.17
2018-11-22T00:48:54.238Z,92.35
2018-11-22T00:51:23.690Z,92.35
2018-11-22T00:53:52.197Z,91.97
2018-11-22T00:56:20.633Z,91.93
2018-11-22T00:58:49.148Z,91.95
2018-11-22T01:01:19.971Z,91.95
2018-11-22T01:03:48.523Z,92.01
2018-11-22T01:06:16.967Z,92.01
2018-11-22T01:08:45.615Z,91.88
2018-11-22T01:11:14.113Z,91.99
2018-11-22T01:13:42.516Z,91.77
2018-11-22T01:16:10.955Z,91.79
2018-11-22T01:18:39.378Z,91.68
2018-11-22T01:21:07.918Z,91.68
2018-11-22T01:23:36.369Z,91.75
2018-11-22T01:26:05.238Z,91.80
2018-11-22T01:28:33.781Z,91.72
2018-11-22T01:31:02.252Z,91.71
2018-11-22T01:33:30.855Z,91.36
2018-11-22T01:35:59.351Z,91.23
2018-11-22T01:38:27.833Z,91.47
2018-11-22T01:40:56.287Z,91.28
2018-11-22T01:43:24.736Z,91.29
2018-11-22T01:45:53.215Z,91.20
2018-11-22T01:48:21.612Z,91.20
2018-11-22T01:50:49.990Z,91.34
2018-11-22T01:53:18.539Z,91.37
2018-11-22T01:55:47.984Z,91.45
2018-11-22T01:58:16.456Z,91.25
2018-11-22T02:00:44.918Z,91.25
2018-11-22T02:03:13.287Z,91.42
2018-11-22T02:05:41.769Z,91.24
2018-11-22T02:08:10.214Z,91.59
2018-11-22T02:10:38.798Z,91.75
2018-11-22T02:13:07.182Z,91.60
2018-11-22T02:15:35.595Z,91.51
2018-11-22T02:18:04.104Z,91.50
2018-11-22T02:20:32.493Z,91.50
2018-11-22T02:23:01.005Z,91.77
2018-11-22T02:25:30.333Z,91.77
2018-11-22T02:27:58.861Z,91.68
2018-11-22T02:30:28.346Z,91.68
2018-11-22T02:32:58.236Z,91.52
2018-11-22T02:35:26.967Z,91.47
2018-11-22T02:37:55.569Z,91.47
2018-11-22T02:40:24.903Z,91.67
2018-11-22T02:42:53.993Z,91.66
2018-11-22T02:45:23.973Z,91.84
2018-11-22T02:47:52.515Z,91.76
2018-11-22T02:50:22.082Z,91.78
2018-11-22T02:52:51.346Z,91.83
2018-11-22T02:55:19.919Z,91.83
2018-11-22T02:57:48.364Z,92.04
2018-11-22T03:00:34.367Z,92.04
2018-11-22T03:03:03.031Z,91.80
2018-11-22T03:05:31.885Z,91.76
2018-11-22T03:08:02.597Z,91.88
2018-11-22T03:10:31.012Z,91.95
2018-11-22T03:12:59.449Z,91.92
2018-11-22T03:15:27.906Z,91.78
2018-11-22T03:17:56.592Z,91.79
2018-11-22T03:20:25.216Z,91.72
2018-11-22T03:22:53.592Z,91.84
2018-11-22T03:25:22.308Z,91.89
2018-11-22T03:27:51.485Z,91.89
2018-11-22T03:30:21.160Z,92.05
2018-11-22T03:32:49.566Z,92.03
2018-11-22T03:35:19.580Z,91.84
2018-11-22T03:37:48.087Z,91.84
2018-11-22T03:40:18.104Z,92.19
2018-11-22T03:42:46.756Z,92.02
2018-11-22T03:45:15.995Z,92.02
2018-11-22T03:47:44.793Z,92.27
2018-11-22T03:50:15.281Z,92.27
2018-11-22T03:52:44.713Z,92.39
2018-11-22T03:55:14.603Z,92.13
2018-11-22T03:57:43.306Z,91.99
2018-11-22T04:00:17.145Z,91.99
2018-11-22T04:02:46.276Z,92.35
2018-11-22T04:05:16.160Z,92.31
2018-11-22T04:07:45.530Z,92.27
2018-11-22T04:10:15.871Z,92.64
2018-11-22T04:12:44.619Z,92.47
2018-11-22T04:15:13.826Z,92.47
2018-11-22T04:17:42.190Z,92.47
2018-11-22T04:20:15.958Z,92.21
2018-11-22T04:22:44.659Z,92.31
2018-11-22T04:25:14.202Z,92.01
2018-11-22T04:27:42.933Z,91.98
2018-11-22T04:30:14.360Z,92.04
2018-11-22T04:32:42.875Z,92.12
2018-11-22T04:35:13.042Z,91.99
2018-11-22T04:37:42.035Z,91.98
2018-11-22T04:40:13.115Z,92.25
2018-11-22T04:42:41.550Z,92.08
2018-11-22T04:45:10.821Z,91.91
2018-11-22T04:47:39.273Z,91.79
2018-11-22T04:50:09.437Z,91.64
2018-11-22T04:52:37.916Z,91.68
2018-11-22T04:55:06.838Z,91.70
2018-11-22T04:57:35.450Z,91.62
2018-11-22T05:00:04.589Z,91.62
2018-11-22T05:02:33.032Z,91.61
2018-11-22T05:05:01.995Z,91.64
2018-11-22T05:07:30.377Z,91.71
2018-11-22T05:09:58.864Z,91.76
2018-11-22T05:12:27.325Z,91.83
2018-11-22T05:14:55.844Z,91.61
2018-11-22T05:17:24.313Z,91.59
2018-11-22T05:19:52.721Z,91.59
2018-11-22T05:22:21.399Z,91.68
2018-11-22T05:24:49.920Z,91.75
2018-11-22T05:27:18.357Z,91.76
2018-11-22T05:29:46.832Z,91.97
2018-11-22T05:32:15.327Z,92.10
2018-11-22T05:34:43.820Z,92.20
2018-11-22T05:37:12.253Z,91.93
2018-11-22T05:39:40.691Z,91.89
2018-11-22T05:42:09.164Z,91.93
2018-11-22T05:44:37.576Z,91.98
2018-11-22T05:47:06.118Z,91.98
2018-11-22T05:49:34.552Z,91.94
2018-11-22T05:52:03.022Z,91.96
2018-11-22T05:54:31.511Z,91.90
2018-11-22T05:57:00.068Z,91.80
2018-11-22T05:59:28.553Z,91.86
2018-11-22T06:01:56.993Z,91.86
2018-11-22T06:04:26.595Z,91.76
2018-11-22T06:06:55.110Z,91.80
2018-11-22T06:09:23.572Z,91.91
2018-11-22T06:11:52.126Z,91.93
2018-11-22T06:14:21.557Z,91.52
2018-11-22T06:16:50.066Z,91.52
2018-11-22T06:19:18.583Z,91.53
2018-11-22T06:21:47.078Z,91.49
2018-11-22T06:24:15.663Z,91.57
2018-11-22T06:26:44.099Z,91.59
2018-11-22T06:29:12.877Z,91.52
2018-11-22T06:31:41.297Z,91.70
2018-11-22T06:34:09.931Z,91.81
2018-11-22T06:36:38.396Z,91.83
2018-11-22T06:39:08.822Z,91.83
2018-11-22T06:41:38.390Z,91.84
2018-11-22T06:44:07.123Z,91.51
2018-11-22T06:46:35.685Z,91.30
2018-11-22T06:49:04.426Z,91.42
2018-11-22T06:51:33.086Z,91.69
2018-11-22T06:54:01.730Z,91.81
2018-11-22T06:56:30.724Z,91.34
2018-11-22T06:58:59.389Z,90.65
2018-11-22T07:01:27.860Z,90.25
2018-11-22T07:03:56.274Z,90.00
2018-11-22T07:06:24.676Z,89.97
2018-11-22T07:08:53.179Z,90.54
2018-11-22T07:11:21.715Z,90.54
2018-11-22T07:13:50.319Z,89.80
2018-11-22T07:16:18.816Z,89.80
2018-11-22T07:18:47.385Z,90.33
2018-11-22T07:21:15.827Z,90.33
2018-11-22T07:23:44.351Z,90.31
2018-11-22T07:26:12.978Z,90.36
2018-11-22T07:28:42.404Z,90.50
2018-11-22T07:31:10.866Z,90.41
2018-11-22T07:33:40.714Z,90.48
2018-11-22T07:36:09.095Z,90.44
2018-11-22T07:38:37.773Z,90.72
2018-11-22T07:41:06.214Z,90.75
2018-11-22T07:43:35.693Z,90.98
2018-11-22T07:46:05.904Z,91.08
2018-11-22T07:48:34.366Z,91.12
2018-11-22T07:51:03.769Z,90.80
2018-11-22T07:53:32.342Z,90.60
2018-11-22T07:56:00.798Z,90.68
2018-11-22T07:58:29.312Z,90.55
2018-11-22T08:00:57.705Z,90.55
2018-11-22T08:03:26.237Z,90.63
2018-11-22T08:05:54.960Z,90.55
2018-11-22T08:08:23.395Z,90.25
2018-11-22T08:10:52.041Z,90.11
2018-11-22T08:13:20.445Z,89.90
2018-11-22T08:15:48.935Z,89.99
2018-11-22T08:18:17.465Z,89.75
2018-11-22T08:20:45.848Z,89.66
2018-11-22T08:23:14.420Z,89.41
2018-11-22T12:17:40.876Z,87.65
2018-11-22T12:20:10.641Z,87.57
2018-11-22T12:22:40.221Z,87.94
2018-11-22T12:25:10.940Z,87.70
2018-11-22T12:27:39.931Z,88.05
2018-11-22T12:30:11.524Z,88.05
2018-11-22T12:32:45.316Z,88.26
2018-11-22T12:36:16.816Z,88.71
2018-11-22T12:38:45.977Z,89.28
2018-11-22T12:41:14.690Z,89.91
2018-11-22T12:43:43.685Z,90.53
2018-11-22T12:46:12.261Z,90.79
2018-11-22T12:48:41.504Z,90.58
2018-11-22T12:51:10.017Z,91.21
2018-11-22T12:53:38.518Z,92.13
2018-11-22T12:56:07.196Z,92.66
2018-11-22T12:58:35.766Z,92.22
2018-11-22T13:01:04.454Z,93.04
2018-11-22T13:03:34.203Z,93.78
2018-11-22T13:06:02.858Z,94.38
2018-11-22T13:08:31.848Z,94.63
2018-11-22T13:11:00.318Z,94.86
2018-11-22T13:13:29.034Z,94.21
2018-11-22T13:15:57.459Z,94.19
2018-11-22T13:18:26.000Z,93.92
2018-11-22T13:20:54.557Z,94.80
2018-11-22T13:23:23.244Z,95.08
2018-11-22T13:25:51.787Z,94.43
2018-11-22T13:28:20.324Z,95.27
2018-11-22T13:30:49.123Z,94.71
2018-11-22T13:33:18.885Z,94.95
2018-11-22T13:35:48.720Z,94.87
2018-11-22T13:38:17.460Z,95.32
2018-11-22T13:40:46.059Z,95.20
2018-11-22T13:43:14.564Z,96.40
2018-11-22T13:45:43.337Z,96.69
2018-11-22T13:48:12.347Z,96.71
2018-11-22T13:50:42.151Z,97.22
2018-11-22T13:53:09.566Z,97.33
2018-11-22T13:55:38.078Z,98.11
2018-11-22T13:58:07.661Z,97.78
2018-11-22T14:00:36.234Z,98.49
2018-11-22T14:03:06.387Z,98.01
2018-11-22T14:05:34.945Z,98.11
2018-11-22T14:08:03.459Z,98.64
2018-11-22T14:10:32.142Z,99.32
2018-11-22T14:13:00.749Z,100.00
2018-11-22T14:15:30.582Z,100.00
2018-11-22T14:18:00.551Z,100.00
2018-11-22T14:20:30.801Z,100.00
2018-11-22T14:22:59.464Z,100.00
2018-11-22T14:25:28.323Z,100.00
2018-11-22T14:27:56.780Z,100.00
2018-11-22T14:30:27.403Z,100.00
2018-11-22T14:32:55.831Z,100.00
2018-11-22T14:35:25.438Z,100.00
2018-11-22T14:37:53.958Z,100.00
2018-11-22T14:40:24.111Z,100.00
2018-11-22T14:42:53.618Z,100.00
2018-11-22T14:45:23.112Z,100.00
2018-11-22T14:47:52.675Z,100.00
2018-11-22T14:50:25.068Z,100.00
2018-11-22T14:52:57.122Z,100.00
2018-11-22T14:55:25.644Z,100.00
2018-11-22T14:57:54.399Z,100.00
2018-11-22T15:01:52.145Z,100.00
2018-11-22T15:04:20.735Z,100.00
2018-11-22T15:06:49.270Z,100.00
2018-11-22T15:09:18.163Z,100.00
2018-11-22T15:11:46.908Z,100.00
2018-11-22T15:14:15.491Z,100.00
2018-11-22T15:16:46.126Z,100.00
2018-11-22T15:19:14.663Z,100.00
2018-11-22T15:21:43.176Z,100.00
2018-11-22T15:24:11.970Z,100.00
2018-11-22T15:26:40.595Z,100.00
2018-11-22T15:29:09.362Z,100.00
2018-11-22T15:31:38.128Z,100.00
2018-11-22T15:34:07.604Z,100.00
2018-11-22T15:36:36.217Z,100.00
2018-11-22T15:39:06.431Z,100.00
2018-11-22T15:41:35.119Z,100.00
2018-11-22T15:44:03.780Z,100.00
2018-11-22T15:46:32.389Z,100.00
2018-11-22T15:49:01.331Z,100.00
2018-11-22T15:51:30.027Z,100.00
2018-11-22T15:53:58.572Z,100.00
2018-11-22T15:56:31.051Z,100.00
2018-11-22T15:59:00.119Z,100.00
2018-11-22T16:01:28.714Z,100.00
2018-11-22T16:03:57.324Z,100.00
2018-11-22T16:06:25.965Z,100.00
2018-11-22T16:08:55.197Z,100.00
2018-11-22T16:11:23.986Z,100.00
2018-11-22T16:13:52.839Z,100.00
2018-11-22T16:16:22.396Z,100.00
2018-11-22T16:18:51.099Z,100.00
2018-11-22T16:21:20.059Z,100.00
2018-11-22T16:23:49.644Z,100.00
2018-11-22T16:26:18.960Z,100.00
2018-11-22T16:28:47.893Z,100.00
2018-11-22T16:31:16.748Z,100.00
2018-11-22T16:33:45.579Z,100.00
2018-11-22T16:36:15.176Z,100.00
2018-11-22T16:38:43.770Z,100.00
2018-11-22T16:41:12.434Z,100.00
2018-11-22T16:43:41.308Z,100.00
2018-11-22T16:46:09.870Z,100.00
2018-11-22T16:48:38.583Z,100.00
2018-11-22T16:51:07.390Z,100.00
2018-11-22T16:53:36.662Z,100.00
2018-11-22T16:56:05.325Z,100.00
2018-11-22T16:58:34.229Z,100.00
2018-11-22T17:01:02.783Z,100.00
2018-11-22T17:03:31.459Z,100.00
2018-11-22T17:06:00.066Z,100.00
2018-11-22T17:08:28.722Z,100.00
2018-11-22T17:10:57.328Z,100.00
2018-11-22T17:13:27.242Z,100.00
2018-11-22T17:15:55.864Z,100.00
2018-11-22T17:18:24.547Z,100.00
2018-11-22T17:20:53.351Z,100.00
2018-11-22T17:23:22.966Z,100.00
2018-11-22T17:25:51.596Z,100.00
2018-11-22T17:28:20.082Z,100.00
2018-11-22T17:30:49.724Z,100.00
2018-11-22T17:33:18.402Z,100.00
2018-11-22T17:35:47.127Z,100.00
2018-11-22T17:43:02.636Z,100.00
2018-11-22T17:45:33.643Z,100.00
2018-11-22T17:48:03.179Z,100.00
2018-11-22T17:50:33.571Z,100.00
2018-11-22T17:53:02.604Z,100.00
2018-11-22T17:55:32.742Z,100.00
2018-11-22T17:58:01.436Z,100.00
2018-11-22T18:00:31.721Z,100.00
2018-11-22T18:03:01.438Z,100.00
2018-11-22T18:05:30.265Z,100.00
2018-11-22T18:07:59.204Z,100.00
2018-11-22T18:10:29.513Z,100.00
2018-11-22T18:12:58.508Z,100.00
2018-11-22T18:15:27.715Z,100.00
2018-11-22T18:17:56.872Z,100.00
2018-11-22T18:20:26.771Z,100.00
2018-11-22T18:22:56.363Z,100.00
2018-11-22T18:25:27.233Z,100.00
2018-11-22T18:27:55.877Z,100.00
2018-11-22T18:30:26.680Z,100.00
2018-11-22T18:32:58.015Z,100.00
2018-11-22T18:35:26.535Z,100.00
2018-11-22T18:37:57.138Z,100.00
2018-11-22T18:40:27.137Z,100.00
2018-11-22T18:42:56.705Z,100.00
2018-11-22T18:45:30.500Z,100.00
2018-11-22T18:47:59.672Z,100.00
2018-11-22T18:50:29.181Z,100.00
2018-11-22T18:52:57.644Z,100.00
2018-11-22T18:55:26.237Z,100.00
2018-11-22T18:57:54.826Z,100.00
2018-11-22T19:00:25.105Z,100.00
2018-11-22T19:02:54.969Z,100.00
2018-11-22T19:05:23.652Z,100.00
2018-11-22T19:07:53.308Z,100.00
2018-11-22T19:10:23.397Z,100.00
2018-11-22T19:12:53.541Z,100.00
2018-11-22T19:15:23.465Z,100.00
2018-11-22T19:17:52.779Z,100.00
2018-11-22T19:20:25.495Z,100.00
2018-11-22T19:22:55.712Z,100.00
2018-11-22T19:25:24.648Z,100.00
2018-11-22T19:27:53.669Z,100.00
2018-11-22T19:30:25.587Z,100.00
2018-11-22T19:32:55.310Z,100.00
2018-11-22T19:35:25.231Z,100.00
2018-11-22T19:37:53.772Z,100.00
2018-11-22T19:40:29.104Z,100.00
2018-11-22T19:43:00.190Z,100.00
2018-11-22T19:45:30.207Z,100.00
2018-11-22T19:47:59.060Z,100.00
2018-11-22T19:50:30.438Z,100.00
2018-11-22T19:53:00.278Z,100.00
2018-11-22T19:55:30.324Z,100.00
2018-11-22T19:58:00.676Z,100.00
2018-11-22T20:00:29.640Z,100.00
2018-11-22T20:02:59.429Z,100.00
2018-11-22T20:05:29.203Z,100.00
2018-11-22T20:07:59.077Z,100.00
2018-11-22T20:10:30.648Z,100.00
2018-11-22T20:12:59.672Z,100.00
2018-11-22T20:15:28.288Z,100.00
2018-11-22T20:17:57.429Z,100.00
2018-11-22T20:20:26.506Z,100.00
2018-11-22T20:22:55.275Z,100.00
2018-11-22T20:25:24.010Z,100.00
2018-11-22T20:27:53.884Z,100.00
2018-11-22T20:30:25.182Z,100.00
2018-11-22T20:32:53.826Z,100.00
2018-11-22T20:35:22.886Z,100.00
2018-11-22T20:37:51.799Z,100.00
2018-11-22T20:40:21.583Z,100.00
2018-11-22T20:42:50.600Z,99.93
2018-11-22T20:45:20.411Z,100.00
2018-11-22T20:47:50.289Z,99.79
2018-11-22T20:50:20.075Z,99.52
2018-11-22T20:52:48.752Z,99.77
2018-11-22T20:55:20.841Z,99.21
2018-11-22T20:57:50.642Z,100.00
2018-11-22T21:00:21.439Z,99.21
2018-11-22T21:02:50.022Z,99.15
2018-11-22T21:05:20.377Z,99.28
2018-11-22T21:07:49.023Z,98.84
2018-11-22T21:10:19.169Z,99.12
2018-11-22T21:12:47.790Z,98.89
2018-11-22T21:15:19.921Z,98.65
2018-11-22T21:17:49.507Z,98.95
2018-11-22T21:20:19.267Z,98.89
2018-11-22T21:22:48.384Z,97.92
2018-11-22T21:25:18.209Z,98.21
2018-11-22T21:27:47.000Z,98.41
2018-11-22T21:30:20.098Z,98.16
2018-11-22T21:32:49.506Z,98.22
2018-11-22T21:35:18.556Z,98.66
2018-11-22T21:37:48.222Z,97.89
2018-11-22T21:40:18.379Z,97.70
2018-11-22T21:42:47.312Z,98.75
2018-11-22T21:45:18.503Z,97.80
2018-11-22T21:47:47.538Z,98.54
2018-11-22T21:50:17.192Z,97.94
2018-11-22T21:52:45.869Z,97.56
2018-11-22T21:55:16.608Z,97.99
2018-11-22T21:57:45.829Z,97.56
2018-11-22T22:00:18.758Z,98.16
2018-11-22T22:02:52.686Z,97.80
2018-11-22T22:05:18.815Z,97.76
2018-11-22T22:07:47.384Z,97.72
2018-11-22T22:10:18.708Z,98.17
2018-11-22T22:12:47.390Z,98.77
2018-11-22T22:15:19.730Z,97.85
2018-11-22T22:17:48.615Z,98.62
2018-11-22T22:20:24.098Z,97.71
2018-11-22T22:22:52.747Z,98.08
2018-11-22T22:25:22.351Z,98.86
2018-11-22T22:27:51.631Z,98.61
2018-11-22T22:30:21.530Z,98.86
2018-11-22T22:32:51.776Z,97.87
2018-11-22T22:35:20.171Z,97.84
2018-11-22T22:37:48.701Z,97.87
2018-11-22T22:40:20.155Z,97.53
2018-11-22T22:42:49.603Z,98.41
2018-11-22T22:45:19.777Z,98.07
2018-11-22T22:47:49.077Z,98.60
2018-11-22T22:50:19.715Z,98.20
2018-11-22T22:52:50.287Z,97.80
2018-11-22T22:55:18.833Z,98.49
2018-11-22T22:57:48.453Z,97.73
2018-11-22T23:00:26.852Z,98.26
2018-11-22T23:02:57.907Z,97.69
2018-11-22T23:05:27.277Z,98.42
2018-11-22T23:07:56.016Z,97.98
2018-11-22T23:10:25.079Z,98.45
2018-11-22T23:12:54.010Z,98.42
2018-11-22T23:15:22.738Z,97.56
2018-11-22T23:17:51.183Z,98.25
2018-11-22T23:20:21.108Z,98.13
2018-11-22T23:22:49.927Z,98.04
2018-11-22T23:25:19.507Z,97.82
2018-11-22T23:27:47.911Z,98.07
2018-11-22T23:30:19.574Z,97.37
2018-11-22T23:32:49.683Z,97.58
2018-11-22T23:35:18.540Z,97.69
2018-11-22T23:37:47.300Z,97.84
2018-11-22T23:40:18.095Z,97.44
2018-11-22T23:42:46.852Z,97.03
2018-11-22T23:45:17.002Z,97.41
2018-11-22T23:47:46.204Z,97.08
2018-11-22T23:50:17.171Z,97.35
2018-11-22T23:52:46.956Z,96.13
2018-11-22T23:55:15.798Z,96.85
2018-11-22T23:57:44.868Z,97.21
